createdAt,value
2022-11-29T00:01:05.854Z,77.87
2022-11-29T00:03:54.965Z,78.62
2022-11-29T00:06:37.816Z,78.11
2022-11-29T00:09:27.861Z,78.22
2022-11-29T00:12:19.862Z,77.80
2022-11-29T00:15:02.210Z,78.09
2022-11-29T00:17:52.070Z,77.45
2022-11-29T00:20:34.217Z,78.28
2022-11-29T00:23:22.947Z,77.74
2022-11-29T00:26:15.215Z,77.70
2022-11-29T00:29:04.050Z,76.56
2022-11-29T00:31:47.667Z,77.53
2022-11-29T00:34:36.986Z,77.55
2022-11-29T00:37:19.224Z,77.90
2022-11-29T00:40:07.939Z,78.52
2022-11-29T00:42:50.282Z,77.79
2022-11-29T00:45:39.073Z,77.77
2022-11-29T00:48:21.260Z,78.23
2022-11-29T00:51:11.010Z,78.49
2022-11-29T00:53:53.268Z,78.33
2022-11-29T00:56:41.954Z,78.16
2022-11-29T00:59:24.363Z,78.06
2022-11-29T01:02:13.038Z,77.31
2022-11-29T01:05:07.851Z,77.72
2022-11-29T01:07:58.081Z,78.04
2022-11-29T01:10:40.279Z,78.35
2022-11-29T01:13:29.469Z,78.17
2022-11-29T01:16:12.268Z,77.94
2022-11-29T01:19:01.040Z,78.25
2022-11-29T01:21:43.262Z,77.97
2022-11-29T01:24:32.078Z,78.69
2022-11-29T01:27:14.220Z,78.41
2022-11-29T01:30:03.046Z,78.26
2022-11-29T01:32:46.245Z,77.70
2022-11-29T01:35:35.040Z,78.29
2022-11-29T01:38:17.286Z,78.32
2022-11-29T01:41:14.985Z,78.25
2022-11-29T01:44:24.530Z,77.69
2022-11-29T01:47:13.982Z,78.14
2022-11-29T01:49:58.320Z,78.60
2022-11-29T01:52:46.970Z,78.74
2022-11-29T01:55:29.230Z,78.82
2022-11-29T01:58:17.934Z,78.16
2022-11-29T02:01:00.218Z,78.38
2022-11-29T02:03:55.929Z,78.70
2022-11-29T02:06:45.878Z,78.80
2022-11-29T02:09:36.922Z,79.08
2022-11-29T02:13:13.973Z,77.69
2022-11-29T02:16:17.294Z,78.46
2022-11-29T02:19:19.893Z,78.55
2022-11-29T02:22:26.862Z,78.13
2022-11-29T02:25:42.292Z,77.89
2022-11-29T02:28:37.964Z,78.91
2022-11-29T02:31:35.225Z,77.84
2022-11-29T02:34:54.979Z,77.56
2022-11-29T02:37:58.210Z,78.10
2022-11-29T02:41:05.031Z,77.39
2022-11-29T02:44:30.203Z,76.20
2022-11-29T02:47:54.910Z,77.70
2022-11-29T02:51:18.260Z,77.78
2022-11-29T02:54:15.971Z,77.58
2022-11-29T02:57:14.882Z,76.48
2022-11-29T03:00:18.908Z,77.20
2022-11-29T03:03:48.819Z,77.12
2022-11-29T03:07:05.020Z,77.04
2022-11-29T03:10:04.282Z,77.43
2022-11-29T03:12:56.867Z,76.73
2022-11-29T03:15:47.863Z,76.95
2022-11-29T03:19:00.336Z,76.46
2022-11-29T03:21:55.858Z,76.01
2022-11-29T03:25:09.563Z,75.20
2022-11-29T03:28:02.958Z,74.00
2022-11-29T03:31:04.859Z,72.32
2022-11-29T03:34:08.929Z,71.46
2022-11-29T03:37:15.015Z,70.56
2022-11-29T03:40:03.599Z,70.99
2022-11-29T03:43:19.958Z,69.57
2022-11-29T03:46:31.018Z,68.85
2022-11-29T03:49:29.858Z,68.18
2022-11-29T03:52:30.233Z,67.05
2022-11-29T03:55:47.798Z,63.20
2022-11-29T03:59:07.206Z,65.05
2022-11-29T04:02:35.994Z,64.44
2022-11-29T04:05:43.831Z,63.08
2022-11-29T04:08:57.839Z,62.51
2022-11-29T04:12:22.986Z,59.48
2022-11-29T04:15:48.069Z,60.82
2022-11-29T04:18:45.199Z,59.53
2022-11-29T04:22:10.247Z,60.83
2022-11-29T04:25:25.229Z,59.84
2022-11-29T04:28:51.968Z,58.46
2022-11-29T04:32:24.337Z,59.40
2022-11-29T04:35:27.823Z,60.06
2022-11-29T04:38:47.361Z,60.16
2022-11-29T04:41:54.888Z,59.39
2022-11-29T04:45:08.359Z,58.94
2022-11-29T04:47:59.889Z,60.10
2022-11-29T04:51:15.910Z,55.85
2022-11-29T04:54:06.924Z,58.97
2022-11-29T04:57:15.255Z,59.17
2022-11-29T05:00:09.942Z,58.79
2022-11-29T05:03:12.574Z,56.41
2022-11-29T05:06:18.955Z,55.03
2022-11-29T05:09:36.242Z,54.69
2022-11-29T05:12:39.865Z,55.19
2022-11-29T05:15:59.242Z,53.59
2022-11-29T05:19:21.942Z,54.05
2022-11-29T05:22:37.391Z,57.70
2022-11-29T05:25:40.219Z,53.21
2022-11-29T05:28:40.921Z,52.79
2022-11-29T05:31:37.986Z,55.27
2022-11-29T05:34:20.369Z,54.88
2022-11-29T05:37:35.894Z,53.73
2022-11-29T05:40:37.324Z,54.66
2022-11-29T05:43:40.863Z,54.58
2022-11-29T05:46:44.213Z,51.70
2022-11-29T05:49:42.931Z,51.88
2022-11-29T05:52:38.866Z,51.45
2022-11-29T05:55:48.920Z,51.04
2022-11-29T05:58:54.227Z,51.16
2022-11-29T06:01:47.947Z,50.44
2022-11-29T06:04:47.174Z,56.05
2022-11-29T06:07:45.967Z,53.80
2022-11-29T06:10:40.852Z,54.00
2022-11-29T06:14:02.063Z,51.10
2022-11-29T06:16:58.937Z,51.53
2022-11-29T06:19:52.887Z,49.04
2022-11-29T06:23:03.138Z,53.81
2022-11-29T06:26:11.926Z,50.29
2022-11-29T06:29:03.233Z,50.91
2022-11-29T06:32:00.999Z,49.96
2022-11-29T06:35:15.265Z,51.19
2022-11-29T06:38:05.900Z,49.58
2022-11-29T06:40:48.169Z,48.93
2022-11-29T06:43:36.936Z,50.14
2022-11-29T06:46:34.268Z,52.79
2022-11-29T06:49:35.907Z,52.66
2022-11-29T06:52:41.227Z,52.96
2022-11-29T06:55:35.965Z,49.68
2022-11-29T06:58:21.333Z,52.11
2022-11-29T07:01:50.962Z,49.11
2022-11-29T07:04:48.580Z,50.55
2022-11-29T07:07:38.930Z,52.04
2022-11-29T07:10:32.894Z,53.34
2022-11-29T07:13:15.607Z,52.49
2022-11-29T07:16:17.023Z,51.80
2022-11-29T07:19:07.357Z,51.82
2022-11-29T07:22:23.846Z,52.66
2022-11-29T07:25:11.781Z,51.04
2022-11-29T07:28:11.953Z,52.38
2022-11-29T07:31:09.513Z,52.67
2022-11-29T07:34:23.990Z,52.05
2022-11-29T07:37:35.219Z,49.66
2022-11-29T07:40:37.434Z,52.90
2022-11-29T07:43:31.842Z,50.85
2022-11-29T07:46:20.952Z,51.45
2022-11-29T07:49:03.058Z,50.65
2022-11-29T07:51:51.910Z,51.57
2022-11-29T07:54:34.269Z,49.79
2022-11-29T07:57:22.907Z,51.12
2022-11-29T08:00:07.206Z,50.77
2022-11-29T08:02:56.920Z,50.24
2022-11-29T08:05:47.147Z,50.59
2022-11-29T08:08:28.926Z,51.37
2022-11-29T08:11:20.159Z,49.93
2022-11-29T08:14:09.873Z,51.94
2022-11-29T08:16:58.779Z,51.68
2022-11-29T08:19:41.162Z,51.80
2022-11-29T08:22:29.813Z,49.03
2022-11-29T08:25:14.192Z,50.22
2022-11-29T08:28:02.780Z,51.27
2022-11-29T08:30:52.854Z,47.97
2022-11-29T08:33:39.522Z,48.15
2022-11-29T08:36:31.916Z,48.81
2022-11-29T08:39:20.798Z,48.94
2022-11-29T08:42:10.000Z,49.65
2022-11-29T08:44:52.088Z,49.26
2022-11-29T08:47:43.870Z,49.49
2022-11-29T08:50:32.180Z,49.82
2022-11-29T08:53:31.789Z,49.98
2022-11-29T08:57:16.636Z,48.79
2022-11-29T08:59:38.796Z,49.04
2022-11-29T09:02:27.812Z,47.33
2022-11-29T09:05:24.737Z,48.40
2022-11-29T09:08:13.840Z,48.59
2022-11-29T09:10:56.159Z,48.87
2022-11-29T09:13:44.963Z,49.52
2022-11-29T09:16:30.225Z,49.67
2022-11-29T09:19:21.821Z,49.06
2022-11-29T09:22:04.689Z,48.09
2022-11-29T09:24:54.792Z,49.00
2022-11-29T09:27:37.135Z,48.09
2022-11-29T09:30:26.824Z,48.92
2022-11-29T09:33:09.177Z,48.79
2022-11-29T09:35:57.777Z,48.85
2022-11-29T09:38:41.181Z,48.76
2022-11-29T09:41:45.564Z,49.10
2022-11-29T09:44:46.287Z,49.06
2022-11-29T09:48:05.901Z,49.70
2022-11-29T09:51:00.241Z,50.95
2022-11-29T09:53:54.910Z,50.43
2022-11-29T09:56:46.214Z,50.24
2022-11-29T09:59:51.931Z,50.39
2022-11-29T10:02:46.466Z,50.67
2022-11-29T10:05:54.863Z,51.68
2022-11-29T10:08:48.208Z,50.80
2022-11-29T10:12:00.877Z,51.23
2022-11-29T10:14:53.271Z,51.12
2022-11-29T10:17:56.998Z,51.86
2022-11-29T10:20:49.253Z,52.52
2022-11-29T10:24:00.839Z,52.93
2022-11-29T10:26:44.570Z,53.02
2022-11-29T10:29:33.919Z,53.53
2022-11-29T10:32:22.628Z,53.49
2022-11-29T10:35:20.774Z,54.54
2022-11-29T10:38:31.663Z,54.90
2022-11-29T10:41:31.864Z,54.55
2022-11-29T10:44:14.214Z,55.07
2022-11-29T10:47:09.312Z,56.24
2022-11-29T10:49:53.184Z,55.17
2022-11-29T10:52:42.840Z,55.59
2022-11-29T10:55:26.208Z,56.43
2022-11-29T10:58:35.816Z,56.80
2022-11-29T11:01:29.849Z,56.78
2022-11-29T11:04:57.864Z,57.42
2022-11-29T11:07:46.982Z,57.72
2022-11-29T11:10:36.157Z,58.37
2022-11-29T11:13:34.846Z,58.83
2022-11-29T11:16:31.557Z,59.20
2022-11-29T11:19:41.857Z,59.25
2022-11-29T11:22:30.154Z,59.44
2022-11-29T11:25:43.861Z,60.45
2022-11-29T11:28:33.244Z,60.79
2022-11-29T11:31:21.817Z,61.12
2022-11-29T11:34:04.327Z,61.25
2022-11-29T11:36:52.873Z,61.88
2022-11-29T11:39:42.927Z,61.62
2022-11-29T11:42:45.910Z,62.44
2022-11-29T11:45:42.818Z,62.25
2022-11-29T11:48:25.736Z,62.72
2022-11-29T11:51:15.924Z,63.03
2022-11-29T11:54:05.169Z,62.70
2022-11-29T11:56:48.013Z,63.10
2022-11-29T11:59:37.184Z,63.32
2022-11-29T12:02:53.024Z,64.04
2022-11-29T12:05:35.175Z,64.25
2022-11-29T12:08:27.795Z,64.61
2022-11-29T12:11:20.893Z,65.08
2022-11-29T12:14:13.897Z,65.61
2022-11-29T12:17:05.405Z,65.72
2022-11-29T12:20:03.926Z,65.88
2022-11-29T12:23:01.239Z,65.84
2022-11-29T12:25:51.949Z,66.88
2022-11-29T12:28:39.706Z,66.96
2022-11-29T12:32:06.854Z,66.87
2022-11-29T12:35:11.848Z,66.86
2022-11-29T12:38:23.122Z,66.71
2022-11-29T12:41:53.632Z,66.78
2022-11-29T12:45:11.761Z,67.91
2022-11-29T12:48:34.186Z,68.40
2022-11-29T12:51:36.885Z,68.83
2022-11-29T12:54:39.977Z,69.81
2022-11-29T12:58:17.159Z,70.52
2022-11-29T13:01:13.235Z,70.04
2022-11-29T13:04:11.829Z,70.05
2022-11-29T13:07:28.824Z,69.67
2022-11-29T13:10:24.003Z,70.22
2022-11-29T13:13:35.120Z,71.02
2022-11-29T13:16:35.935Z,71.57
2022-11-29T13:19:49.430Z,71.65
2022-11-29T13:22:43.891Z,72.19
2022-11-29T13:25:43.181Z,72.28
2022-11-29T13:28:37.969Z,72.73
2022-11-29T13:31:29.939Z,71.54
2022-11-29T13:34:25.908Z,71.29
2022-11-29T13:37:37.180Z,71.40
2022-11-29T13:40:50.904Z,71.42
2022-11-29T13:43:57.119Z,71.67
2022-11-29T13:46:57.890Z,72.30
2022-11-29T13:50:03.432Z,71.97
2022-11-29T13:52:52.848Z,72.13
2022-11-29T13:55:41.842Z,73.17
2022-11-29T13:58:48.758Z,72.77
2022-11-29T14:01:37.897Z,73.05
2022-11-29T14:04:53.763Z,73.52
2022-11-29T14:07:48.984Z,74.48
2022-11-29T14:10:38.900Z,74.24
2022-11-29T14:13:23.114Z,74.58
2022-11-29T14:16:20.771Z,74.56
2022-11-29T14:19:26.660Z,73.97
2022-11-29T14:22:36.383Z,73.62
2022-11-29T14:25:52.457Z,73.61
2022-11-29T14:29:03.630Z,73.83
2022-11-29T14:32:05.160Z,74.01
2022-11-29T14:35:18.969Z,73.96
2022-11-29T14:38:48.717Z,74.60
2022-11-29T14:42:05.736Z,74.24
2022-11-29T14:45:13.615Z,74.66
2022-11-29T14:48:21.895Z,74.84
2022-11-29T14:51:30.785Z,75.03
2022-11-29T14:54:50.658Z,75.64
2022-11-29T14:58:08.321Z,75.78
2022-11-29T15:04:31.047Z,75.64
2022-11-29T15:10:46.078Z,75.60
2022-11-29T15:13:48.308Z,75.83
2022-11-29T15:20:26.484Z,76.19
2022-11-29T15:23:30.784Z,75.53
2022-11-29T15:26:26.491Z,74.85
2022-11-29T15:29:36.644Z,75.33
2022-11-29T15:32:52.768Z,75.76
2022-11-29T15:38:46.275Z,76.48
2022-11-29T15:41:45.026Z,76.53
2022-11-29T15:44:41.223Z,76.79
2022-11-29T15:47:42.298Z,76.50
2022-11-29T15:50:28.444Z,76.76
2022-11-29T15:53:28.764Z,77.24
2022-11-29T15:56:54.925Z,77.76
2022-11-29T16:00:11.070Z,77.80
2022-11-29T16:03:15.127Z,77.77
2022-11-29T16:06:30.278Z,77.71
2022-11-29T16:09:33.220Z,77.66
2022-11-29T16:12:27.215Z,77.48
2022-11-29T16:15:23.256Z,77.88
2022-11-29T16:18:30.369Z,77.69
2022-11-29T16:21:29.984Z,76.43
2022-11-29T16:24:31.444Z,76.20
2022-11-29T16:27:37.884Z,76.38
2022-11-29T16:30:43.059Z,76.26
2022-11-29T16:33:48.692Z,76.64
2022-11-29T16:40:05.130Z,77.14
2022-11-29T16:43:26.993Z,77.46
2022-11-29T16:46:52.149Z,77.27
2022-11-29T16:49:59.066Z,78.30
2022-11-29T16:52:56.179Z,78.39
2022-11-29T16:55:59.951Z,77.88
2022-11-29T16:59:25.096Z,78.24
2022-11-29T17:02:26.370Z,78.04
2022-11-29T17:05:18.337Z,78.48
2022-11-29T17:08:11.414Z,78.15
2022-11-29T17:11:23.307Z,78.53
2022-11-29T17:14:06.657Z,78.03
2022-11-29T17:16:52.308Z,77.70
2022-11-29T17:19:42.647Z,77.71
2022-11-29T17:22:29.197Z,78.81
2022-11-29T17:25:22.993Z,78.09
2022-11-29T17:28:13.227Z,77.17
2022-11-29T17:30:56.027Z,76.42
2022-11-29T17:33:47.207Z,76.27
2022-11-29T17:36:30.645Z,76.63
2022-11-29T17:39:23.081Z,77.20
2022-11-29T17:42:06.022Z,77.85
2022-11-29T17:44:57.076Z,77.81
2022-11-29T17:47:46.179Z,78.27
2022-11-29T17:50:30.823Z,78.96
2022-11-29T17:53:24.152Z,78.73
2022-11-29T17:56:18.599Z,78.38
2022-11-29T17:59:11.196Z,77.92
2022-11-29T18:02:01.199Z,78.27
2022-11-29T18:04:58.065Z,78.67
2022-11-29T18:08:06.146Z,78.49
2022-11-29T18:10:50.042Z,77.90
2022-11-29T18:13:44.058Z,78.54
2022-11-29T18:16:39.204Z,78.35
2022-11-29T18:19:24.160Z,78.20
2022-11-29T18:22:14.133Z,78.13
2022-11-29T18:25:09.985Z,77.18
2022-11-29T18:28:06.121Z,78.19
2022-11-29T18:30:49.213Z,78.60
2022-11-29T18:33:42.178Z,78.31
2022-11-29T18:36:40.782Z,78.57
2022-11-29T18:39:27.597Z,78.15
2022-11-29T18:42:18.202Z,78.42
2022-11-29T18:45:02.589Z,78.60
2022-11-29T18:47:53.179Z,78.37
2022-11-29T18:50:36.639Z,78.31
2022-11-29T18:53:26.412Z,78.81
2022-11-29T18:56:17.177Z,78.45
2022-11-29T18:59:08.190Z,78.68
2022-11-29T19:01:59.105Z,78.54
2022-11-29T19:04:45.975Z,77.93
2022-11-29T19:07:39.231Z,78.09
2022-11-29T19:10:23.641Z,77.46
2022-11-29T19:13:14.168Z,78.13
2022-11-29T19:16:04.461Z,78.93
2022-11-29T19:19:03.151Z,78.32
2022-11-29T19:21:46.722Z,77.85
2022-11-29T19:24:36.222Z,78.59
2022-11-29T19:27:18.613Z,77.96
2022-11-29T19:30:08.471Z,77.42
2022-11-29T19:32:52.753Z,77.69
2022-11-29T19:35:44.127Z,78.66
2022-11-29T19:38:28.570Z,78.46
2022-11-29T19:41:29.202Z,78.83
2022-11-29T19:44:14.192Z,78.72
2022-11-29T19:47:03.891Z,77.99
2022-11-29T19:49:46.954Z,78.06
2022-11-29T19:52:36.835Z,77.71
2022-11-29T19:55:19.107Z,77.27
2022-11-29T19:58:07.827Z,77.30
2022-11-29T20:00:50.104Z,77.71
2022-11-29T20:03:38.743Z,77.38
2022-11-29T20:06:21.090Z,77.62
2022-11-29T20:09:09.835Z,78.15
2022-11-29T20:11:58.814Z,78.32
2022-11-29T20:14:47.706Z,78.87
2022-11-29T20:17:36.743Z,78.62
2022-11-29T20:20:25.190Z,78.26
2022-11-29T20:23:06.921Z,78.07
2022-11-29T20:25:52.559Z,77.25
2022-11-29T20:28:41.833Z,77.82
2022-11-29T20:31:31.836Z,78.05
2022-11-29T20:34:15.080Z,78.29
2022-11-29T20:37:21.782Z,79.06
2022-11-29T20:40:38.733Z,79.45
2022-11-29T20:43:58.119Z,78.51
2022-11-29T20:46:43.894Z,78.92
2022-11-29T20:49:26.212Z,78.37
2022-11-29T20:52:19.816Z,78.23
2022-11-29T20:55:08.783Z,78.45
2022-11-29T20:57:57.830Z,78.17
2022-11-29T21:00:46.074Z,77.74
2022-11-29T21:03:28.930Z,77.72
2022-11-29T21:06:23.767Z,78.28
2022-11-29T21:09:06.914Z,78.14
2022-11-29T21:11:55.796Z,77.97
2022-11-29T21:14:38.337Z,78.15
2022-11-29T21:17:33.150Z,77.32
2022-11-29T21:20:23.101Z,78.11
2022-11-29T21:23:27.804Z,78.75
2022-11-29T21:26:26.309Z,78.12
2022-11-29T21:29:23.731Z,78.27
2022-11-29T21:32:19.024Z,78.18
2022-11-29T21:35:01.742Z,77.88
2022-11-29T21:37:44.059Z,78.29
2022-11-29T21:40:32.694Z,78.58
2022-11-29T21:43:15.019Z,78.83
2022-11-29T21:46:04.865Z,78.78
2022-11-29T21:48:47.226Z,78.68
2022-11-29T21:51:35.787Z,78.18
2022-11-29T21:54:18.092Z,78.16
2022-11-29T21:57:06.683Z,78.73
2022-11-29T21:59:49.105Z,78.37
2022-11-29T22:02:37.973Z,78.82
2022-11-29T22:05:26.685Z,77.45
2022-11-29T22:08:21.798Z,78.78
2022-11-29T22:11:12.066Z,78.87
2022-11-29T22:14:12.789Z,78.22
2022-11-29T22:16:57.614Z,78.00
2022-11-29T22:19:50.756Z,78.02
2022-11-29T22:22:32.939Z,77.99
2022-11-29T22:25:21.764Z,77.57
2022-11-29T22:28:03.911Z,77.89
2022-11-29T22:30:52.743Z,77.52
2022-11-29T22:33:42.121Z,77.41
2022-11-29T22:36:23.795Z,77.43
2022-11-29T22:39:14.113Z,77.51
2022-11-29T22:41:55.800Z,77.95
2022-11-29T22:44:44.280Z,77.70
2022-11-29T22:47:26.700Z,77.73
2022-11-29T22:50:18.021Z,77.03
2022-11-29T22:53:01.713Z,77.22
2022-11-29T22:55:50.019Z,77.65
2022-11-29T22:58:32.814Z,77.78
2022-11-29T23:01:22.876Z,77.51
2022-11-29T23:04:14.733Z,77.29
2022-11-29T23:07:09.703Z,77.35
2022-11-29T23:09:58.729Z,77.59
2022-11-29T23:12:47.658Z,77.97
2022-11-29T23:15:36.863Z,77.50
2022-11-29T23:18:19.066Z,77.63
2022-11-29T23:21:14.795Z,77.38
2022-11-29T23:24:03.765Z,77.52
2022-11-29T23:26:48.365Z,77.89
2022-11-29T23:29:36.639Z,77.16
2022-11-29T23:32:25.084Z,78.23
2022-11-29T23:35:06.736Z,78.45
2022-11-29T23:37:55.089Z,78.49
2022-11-29T23:40:36.738Z,77.63
2022-11-29T23:43:25.716Z,78.67
2022-11-29T23:46:19.830Z,78.25
2022-11-29T23:49:01.994Z,77.86
2022-11-29T23:51:50.719Z,78.25
2022-11-29T23:54:39.637Z,78.28
2022-11-29T23:57:22.078Z,77.71
